Terminal Aerodrome Forecast
Issued by NWS Shreveport, LA

Home | Current Version | Previous Version | Text Only | Print | Product List | Glossary On
Versions: 1 2 3 4 5 6 7 8 9 10 11 12 13 14 15
000
FTUS44 KSHV 262322
TAFELD
TAF
KELD 262322Z 2700/2724 30003KT P6SM SCT050 SCT150 SCT250
      TEMPO 2700/2704 BKN045
     FM271500 33004KT P6SM SCT030 SCT150 SCT250
     FM271800 29006KT P6SM SCT050 SCT250=

USA.gov is the U.S. government's official web portal to all federal, state and local government web resources and services.